Time;durP1;ratioP1;P1;durP2;ratioP2;P2;SDS_P1;SDS_P2;PMS_P1;PMS_P2;Temp;Humidity;BMP_temperature;BMP_pressure;BME280_temperature;BME280_humidity;BME280_pressure;Samples;Min_cycle;Max_cycle;Signal;HPM_P1;HPM_P2
2024/03/13 00:01:10;;;;;;;6.45;2.80;;;;;;;;;;4868414;29;20056;-73
2024/03/13 00:03:42;;;;;;;4.07;2.80;;;;;;;;;;4866699;29;20068;-73
2024/03/13 00:06:13;;;;;;;9.38;2.72;;;;;;;;;;4866864;29;20064;-73
2024/03/13 00:08:44;;;;;;;11.10;2.97;;;;;;;;;;4881049;29;20060;-73
2024/03/13 00:11:14;;;;;;;6.85;2.88;;;;;;;;;;4869072;29;20526;-75
2024/03/13 00:13:45;;;;;;;8.45;2.80;;;;;;;;;;4868997;29;20069;-73
2024/03/13 00:16:15;;;;;;;6.10;2.72;;;;;;;;;;4869355;29;20045;-74
2024/03/13 00:18:46;;;;;;;11.68;2.65;;;;;;;;;;4869621;29;20057;-73
2024/03/13 00:21:16;;;;;;;8.52;2.70;;;;;;;;;;4868796;29;20057;-73
2024/03/13 00:23:47;;;;;;;10.77;2.60;;;;;;;;;;4869583;29;20037;-73
2024/03/13 00:26:21;;;;;;;7.15;2.53;;;;;;;;;;4867470;29;20095;-73
2024/03/13 00:28:51;;;;;;;6.53;2.65;;;;;;;;;;4868717;29;20060;-73
2024/03/13 00:31:21;;;;;;;10.25;2.83;;;;;;;;;;4868771;29;20052;-73
2024/03/13 00:33:52;;;;;;;12.00;2.88;;;;;;;;;;4868680;29;20053;-73
2024/03/13 00:36:23;;;;;;;8.18;2.42;;;;;;;;;;4868473;29;20099;-73
2024/03/13 00:38:54;;;;;;;13.82;3.00;;;;;;;;;;4868547;29;20523;-73
2024/03/13 00:41:25;;;;;;;13.25;2.92;;;;;;;;;;4868539;29;20376;-73
2024/03/13 00:43:56;;;;;;;10.82;2.45;;;;;;;;;;4866915;29;20357;-73
2024/03/13 00:46:26;;;;;;;8.77;2.70;;;;;;;;;;4867872;29;20041;-73
2024/03/13 00:48:57;;;;;;;9.90;2.63;;;;;;;;;;4869520;29;20049;-73
2024/03/13 00:51:27;;;;;;;7.15;2.55;;;;;;;;;;4872328;29;20072;-73
2024/03/13 00:53:58;;;;;;;5.75;2.35;;;;;;;;;;4871174;29;20064;-73
2024/03/13 00:56:29;;;;;;;6.90;2.50;;;;;;;;;;4871015;29;20061;-73
2024/03/13 00:59:00;;;;;;;5.57;2.53;;;;;;;;;;4872622;29;20060;-74
2024/03/13 01:01:31;;;;;;;8.00;2.70;;;;;;;;;;4872417;29;20061;-73
2024/03/13 01:04:02;;;;;;;6.72;2.28;;;;;;;;;;4872408;29;20049;-72
2024/03/13 01:06:32;;;;;;;8.82;2.70;;;;;;;;;;4872553;29;20056;-73
2024/03/13 01:09:04;;;;;;;9.93;3.88;;;;;;;;;;4872875;29;20056;-72
2024/03/13 01:11:35;;;;;;;11.80;2.55;;;;;;;;;;4871905;29;20060;-73
2024/03/13 01:14:06;;;;;;;7.28;2.45;;;;;;;;;;4871635;29;20841;-72
2024/03/13 01:16:37;;;;;;;11.05;2.30;;;;;;;;;;4871836;29;20100;-72
2024/03/13 01:19:08;;;;;;;9.10;2.55;;;;;;;;;;4871932;29;20420;-73
2024/03/13 01:21:38;;;;;;;10.10;2.45;;;;;;;;;;4872017;29;20063;-72
2024/03/13 01:24:11;;;;;;;7.60;2.45;;;;;;;;;;4872317;29;20057;-72
2024/03/13 01:26:47;;;;;;;7.18;2.10;;;;;;;;;;4871724;29;20637;-72
2024/03/13 01:29:18;;;;;;;5.05;2.35;;;;;;;;;;4871891;29;20534;-72
2024/03/13 01:31:49;;;;;;;5.30;2.33;;;;;;;;;;4872116;29;20060;-72
2024/03/13 01:34:20;;;;;;;6.72;2.53;;;;;;;;;;4872466;29;20064;-72
2024/03/13 01:39:40;;;;;;;5.95;2.65;;;;;;;;;;4872243;29;20052;-73
2024/03/13 01:56:30;;;;;;;11.07;2.60;;;;;;;;;;4871660;29;20057;-72
2024/03/13 01:59:09;;;;;;;11.48;2.55;;;;;;;;;;4870290;29;20061;-72
2024/03/13 02:04:29;;;;;;;8.93;2.60;;;;;;;;;;4871282;29;20053;-72
2024/03/13 02:06:59;;;;;;;11.52;2.83;;;;;;;;;;4870846;29;20049;-72
2024/03/13 02:09:30;;;;;;;9.57;2.70;;;;;;;;;;4871180;29;20053;-72
2024/03/13 02:12:00;;;;;;;14.38;2.80;;;;;;;;;;4871040;29;20064;-72
2024/03/13 02:14:32;;;;;;;9.57;3.05;;;;;;;;;;4871540;29;20048;-73
2024/03/13 02:17:03;;;;;;;7.35;2.80;;;;;;;;;;4871327;29;20687;-73
2024/03/13 02:19:41;;;;;;;11.27;2.47;;;;;;;;;;4871252;29;20049;-73
2024/03/13 02:22:14;;;;;;;9.07;2.97;;;;;;;;;;4871298;29;20630;-72
2024/03/13 02:24:45;;;;;;;10.70;2.63;;;;;;;;;;4871010;29;20052;-73
2024/03/13 02:27:15;;;;;;;5.60;2.60;;;;;;;;;;4871489;29;20049;-73
2024/03/13 02:29:49;;;;;;;7.47;2.70;;;;;;;;;;4871337;29;20045;-73
2024/03/13 02:32:20;;;;;;;15.63;2.78;;;;;;;;;;4870918;29;20846;-73
2024/03/13 02:34:51;;;;;;;8.13;2.50;;;;;;;;;;4870955;29;20068;-73
2024/03/13 02:37:20;;;;;;;7.65;2.50;;;;;;;;;;4870895;29;20055;-73
2024/03/13 02:39:52;;;;;;;8.25;2.45;;;;;;;;;;4870327;29;20408;-72
2024/03/13 02:42:23;;;;;;;10.00;3.28;;;;;;;;;;4870799;29;20053;-72
2024/03/13 02:44:53;;;;;;;5.80;2.97;;;;;;;;;;4870824;29;20044;-73
2024/03/13 02:47:23;;;;;;;7.05;2.50;;;;;;;;;;4870671;29;20053;-71
2024/03/13 02:49:54;;;;;;;8.20;2.55;;;;;;;;;;4870624;29;20056;-71
2024/03/13 02:52:26;;;;;;;9.05;2.78;;;;;;;;;;4871000;29;20530;-72
2024/03/13 02:54:56;;;;;;;4.78;2.40;;;;;;;;;;4870599;29;20048;-73
2024/03/13 02:57:27;;;;;;;6.60;2.10;;;;;;;;;;4870553;29;20076;-72
2024/03/13 02:59:57;;;;;;;8.73;2.97;;;;;;;;;;4870536;29;20060;-72
2024/03/13 03:02:29;;;;;;;10.15;2.70;;;;;;;;;;4870850;29;20053;-72
2024/03/13 03:04:59;;;;;;;9.82;2.72;;;;;;;;;;4870362;29;20614;-72
2024/03/13 03:07:32;;;;;;;7.30;2.63;;;;;;;;;;4870278;29;20098;-73
2024/03/13 03:10:03;;;;;;;11.70;3.22;;;;;;;;;;4869782;29;20061;-72
2024/03/13 03:12:33;;;;;;;10.00;3.03;;;;;;;;;;4869840;29;20048;-73
2024/03/13 03:15:04;;;;;;;11.10;3.20;;;;;;;;;;4870597;29;20044;-73
2024/03/13 03:17:36;;;;;;;8.15;2.75;;;;;;;;;;4869168;29;20530;-73
2024/03/13 03:20:10;;;;;;;11.90;3.45;;;;;;;;;;4871028;29;20053;-73
2024/03/13 03:22:40;;;;;;;4.65;2.03;;;;;;;;;;4869510;29;20542;-73
2024/03/13 03:25:12;;;;;;;5.45;2.58;;;;;;;;;;4869232;29;20061;-72
2024/03/13 03:27:41;;;;;;;9.48;3.33;;;;;;;;;;4869935;29;20456;-73
2024/03/13 03:30:12;;;;;;;7.93;3.10;;;;;;;;;;4869876;29;20064;-73
2024/03/13 03:32:45;;;;;;;7.72;2.80;;;;;;;;;;4869700;29;20527;-74
2024/03/13 03:35:15;;;;;;;7.75;3.20;;;;;;;;;;4869679;29;20049;-72
2024/03/13 03:37:45;;;;;;;11.02;2.90;;;;;;;;;;4870091;29;20056;-72
2024/03/13 03:40:16;;;;;;;7.78;2.42;;;;;;;;;;4869259;29;20957;-72
2024/03/13 03:42:47;;;;;;;6.45;2.67;;;;;;;;;;4869364;29;20048;-72
2024/03/13 03:45:18;;;;;;;9.40;2.60;;;;;;;;;;4869825;29;20064;-73
2024/03/13 03:47:48;;;;;;;6.78;2.72;;;;;;;;;;4869638;29;20057;-72
2024/03/13 03:50:30;;;;;;;7.30;2.85;;;;;;;;;;4869421;29;20625;-73
2024/03/13 03:53:00;;;;;;;9.05;2.67;;;;;;;;;;4869356;29;20528;-73
2024/03/13 03:55:31;;;;;;;8.15;2.78;;;;;;;;;;4869408;29;20053;-73
2024/03/13 03:58:01;;;;;;;4.43;2.83;;;;;;;;;;4869318;29;20052;-72
2024/03/13 04:00:35;;;;;;;9.82;2.70;;;;;;;;;;4869898;29;20500;-72
2024/03/13 04:03:09;;;;;;;4.72;2.13;;;;;;;;;;4870167;29;20424;-72
2024/03/13 04:05:40;;;;;;;7.13;2.90;;;;;;;;;;4869395;29;20520;-73
2024/03/13 04:08:10;;;;;;;7.30;2.50;;;;;;;;;;4869327;29;20380;-72
2024/03/13 04:10:42;;;;;;;13.10;2.80;;;;;;;;;;4867873;29;20048;-73
2024/03/13 04:13:13;;;;;;;8.13;2.50;;;;;;;;;;4869450;29;20049;-72
2024/03/13 04:15:44;;;;;;;9.32;3.08;;;;;;;;;;4867967;29;20068;-73
2024/03/13 04:18:14;;;;;;;5.28;2.92;;;;;;;;;;4868804;29;20060;-73
2024/03/13 04:20:45;;;;;;;5.00;2.92;;;;;;;;;;4869202;29;20041;-73
2024/03/13 04:23:16;;;;;;;6.68;2.90;;;;;;;;;;4868888;29;20060;-72
2024/03/13 04:25:48;;;;;;;7.70;2.53;;;;;;;;;;4869393;29;20049;-72
2024/03/13 04:28:18;;;;;;;10.18;3.17;;;;;;;;;;4868782;29;20534;-72
2024/03/13 04:30:48;;;;;;;8.18;3.15;;;;;;;;;;4869046;29;20061;-73
2024/03/13 04:33:20;;;;;;;10.63;3.20;;;;;;;;;;4869352;29;20064;-73
2024/03/13 04:35:51;;;;;;;14.15;3.33;;;;;;;;;;4868585;29;20053;-73
2024/03/13 04:38:21;;;;;;;3.80;2.55;;;;;;;;;;4869281;29;20049;-72
2024/03/13 04:40:51;;;;;;;7.93;2.80;;;;;;;;;;4869846;29;20052;-71
2024/03/13 04:43:21;;;;;;;7.28;3.90;;;;;;;;;;4869043;29;20049;-73
2024/03/13 04:45:53;;;;;;;6.13;2.40;;;;;;;;;;4869603;29;20420;-72
2024/03/13 04:48:25;;;;;;;6.43;3.13;;;;;;;;;;4868704;29;20060;-73
2024/03/13 04:50:56;;;;;;;5.55;3.00;;;;;;;;;;4868853;29;20500;-72
2024/03/13 04:53:26;;;;;;;10.30;3.05;;;;;;;;;;4868703;29;20049;-72
2024/03/13 04:55:57;;;;;;;5.95;2.80;;;;;;;;;;4868381;29;20069;-72
2024/03/13 04:58:28;;;;;;;5.90;3.38;;;;;;;;;;4868612;29;20611;-73
2024/03/13 05:00:58;;;;;;;9.27;3.25;;;;;;;;;;4868529;29;20060;-72
2024/03/13 05:03:29;;;;;;;7.88;2.63;;;;;;;;;;4868858;29;20441;-73
2024/03/13 05:05:59;;;;;;;6.57;2.60;;;;;;;;;;4868917;29;20053;-73
2024/03/13 05:08:31;;;;;;;10.75;3.70;;;;;;;;;;4868705;29;20045;-73
2024/03/13 05:11:02;;;;;;;7.80;2.83;;;;;;;;;;4868938;29;20044;-73
2024/03/13 05:13:32;;;;;;;7.82;2.88;;;;;;;;;;4868424;29;20053;-73
2024/03/13 05:16:03;;;;;;;5.38;3.20;;;;;;;;;;4868902;29;20045;-72
2024/03/13 05:18:35;;;;;;;5.25;2.92;;;;;;;;;;4868823;29;20071;-72
2024/03/13 05:21:05;;;;;;;9.55;3.13;;;;;;;;;;4868651;29;20539;-72
2024/03/13 05:23:35;;;;;;;10.32;3.08;;;;;;;;;;4868392;29;20053;-72
2024/03/13 05:26:06;;;;;;;9.05;2.90;;;;;;;;;;4868387;29;20053;-73
2024/03/13 05:28:37;;;;;;;5.30;2.90;;;;;;;;;;4868622;29;20431;-73
2024/03/13 05:31:10;;;;;;;5.72;3.10;;;;;;;;;;4867462;29;20053;-73
2024/03/13 05:33:40;;;;;;;4.75;3.10;;;;;;;;;;4869306;29;20060;-72
2024/03/13 05:36:11;;;;;;;6.57;2.83;;;;;;;;;;4871274;29;20053;-73
2024/03/13 05:38:42;;;;;;;14.32;3.60;;;;;;;;;;4871474;29;20061;-72
2024/03/13 05:41:14;;;;;;;6.78;2.85;;;;;;;;;;4871724;29;20060;-73
2024/03/13 05:43:44;;;;;;;3.92;2.92;;;;;;;;;;4871401;29;20060;-72
2024/03/13 05:46:14;;;;;;;7.15;2.92;;;;;;;;;;4870481;29;20057;-73
2024/03/13 05:48:46;;;;;;;8.60;2.90;;;;;;;;;;4871689;29;20091;-72
2024/03/13 05:51:18;;;;;;;5.90;2.83;;;;;;;;;;4871883;29;20416;-72
2024/03/13 05:53:50;;;;;;;9.13;3.25;;;;;;;;;;4871565;29;20057;-73
2024/03/13 05:56:21;;;;;;;4.18;3.05;;;;;;;;;;4871271;29;20523;-72
2024/03/13 05:58:51;;;;;;;4.00;2.65;;;;;;;;;;4869655;29;20402;-73
2024/03/13 06:01:26;;;;;;;10.30;2.63;;;;;;;;;;4871153;29;20053;-72
2024/03/13 06:03:58;;;;;;;;;;;;;;;;;;4872028;29;20049;-73
2024/03/13 06:06:29;;;;;;;8.05;2.88;;;;;;;;;;4871652;29;19928;-72
2024/03/13 06:08:59;;;;;;;3.67;2.83;;;;;;;;;;4871292;29;20085;-73
2024/03/13 06:11:30;;;;;;;5.40;3.05;;;;;;;;;;4870842;29;20048;-72
2024/03/13 06:14:01;;;;;;;7.22;2.90;;;;;;;;;;4871007;29;20057;-73
2024/03/13 06:16:32;;;;;;;6.57;3.63;;;;;;;;;;4871008;29;20045;-72
2024/03/13 06:19:02;;;;;;;5.72;2.90;;;;;;;;;;4871118;29;20052;-72
2024/03/13 06:21:32;;;;;;;5.80;3.35;;;;;;;;;;4871085;29;20053;-73
2024/03/13 06:24:05;;;;;;;9.00;3.30;;;;;;;;;;4871142;29;20052;-72
2024/03/13 06:26:35;;;;;;;10.32;3.05;;;;;;;;;;4885625;29;20123;-71
2024/03/13 06:31:54;;;;;;;9.77;3.00;;;;;;;;;;4871044;29;20491;-72
2024/03/13 06:34:24;;;;;;;7.72;3.05;;;;;;;;;;4870845;29;20760;-72
2024/03/13 06:36:54;;;;;;;5.85;3.50;;;;;;;;;;4870771;29;20061;-72
2024/03/13 06:39:25;;;;;;;5.13;3.00;;;;;;;;;;4870786;29;20053;-72
2024/03/13 06:41:57;;;;;;;8.88;3.50;;;;;;;;;;4870940;29;20045;-72
2024/03/13 06:44:27;;;;;;;8.05;3.45;;;;;;;;;;4870549;29;20036;-72
2024/03/13 06:46:57;;;;;;;10.48;3.53;;;;;;;;;;4869460;29;20060;-72
2024/03/13 06:49:28;;;;;;;7.43;3.15;;;;;;;;;;4870842;29;20075;-72
2024/03/13 06:51:59;;;;;;;8.77;2.97;;;;;;;;;;4870889;29;20056;-73
2024/03/13 06:54:30;;;;;;;9.65;3.38;;;;;;;;;;4871394;29;20452;-72
2024/03/13 06:57:00;;;;;;;5.68;3.17;;;;;;;;;;4870340;29;20060;-72
2024/03/13 06:59:31;;;;;;;6.72;3.15;;;;;;;;;;4869846;29;20049;-73
2024/03/13 07:02:02;;;;;;;6.40;3.20;;;;;;;;;;4870542;29;20057;-72
2024/03/13 07:04:33;;;;;;;9.38;3.38;;;;;;;;;;4870381;29;20059;-72
2024/03/13 07:07:04;;;;;;;4.90;3.05;;;;;;;;;;4870692;29;20053;-73
2024/03/13 07:09:36;;;;;;;7.05;3.58;;;;;;;;;;4870335;29;20052;-73
2024/03/13 07:12:07;;;;;;;6.25;3.35;;;;;;;;;;4870258;29;20041;-72
2024/03/13 07:14:40;;;;;;;8.85;3.25;;;;;;;;;;4868375;29;20053;-72
2024/03/13 07:17:10;;;;;;;11.48;3.40;;;;;;;;;;4870236;29;20053;-72
2024/03/13 07:19:40;;;;;;;6.80;3.30;;;;;;;;;;4870209;29;20053;-73
2024/03/13 07:22:11;;;;;;;10.68;3.22;;;;;;;;;;4869508;29;20053;-73
2024/03/13 07:24:42;;;;;;;5.20;3.00;;;;;;;;;;4869456;29;20040;-73
2024/03/13 07:27:12;;;;;;;7.95;3.40;;;;;;;;;;4869767;29;20057;-73
2024/03/13 07:29:42;;;;;;;7.05;3.75;;;;;;;;;;4869978;29;20428;-72
2024/03/13 07:32:16;;;;;;;5.68;3.65;;;;;;;;;;4870191;29;20052;-72
2024/03/13 07:34:47;;;;;;;9.35;3.42;;;;;;;;;;4869804;29;20053;-72
2024/03/13 07:37:17;;;;;;;8.32;3.70;;;;;;;;;;4869461;29;20076;-71
2024/03/13 07:39:47;;;;;;;10.50;3.35;;;;;;;;;;4884075;29;20064;-72
2024/03/13 07:42:18;;;;;;;7.55;3.20;;;;;;;;;;4869575;29;20056;-73
2024/03/13 07:44:50;;;;;;;7.78;3.13;;;;;;;;;;4884603;29;20057;-72
2024/03/13 07:47:22;;;;;;;4.60;2.97;;;;;;;;;;4870443;29;20044;-71
2024/03/13 07:49:52;;;;;;;6.47;3.20;;;;;;;;;;4870702;29;20045;-72
2024/03/13 07:52:22;;;;;;;6.82;3.38;;;;;;;;;;4868006;29;20057;-72
2024/03/13 07:54:52;;;;;;;5.90;2.90;;;;;;;;;;4869182;29;20053;-72
2024/03/13 07:57:24;;;;;;;3.75;2.85;;;;;;;;;;4869558;29;20514;-72
2024/03/13 07:59:55;;;;;;;7.05;3.20;;;;;;;;;;4869139;29;20740;-72
2024/03/13 08:02:27;;;;;;;6.70;3.28;;;;;;;;;;4869581;29;20061;-71
2024/03/13 08:04:59;;;;;;;9.27;3.35;;;;;;;;;;4869333;29;20057;-72
2024/03/13 08:07:32;;;;;;;6.72;3.58;;;;;;;;;;4868939;29;20060;-72
2024/03/13 08:10:21;;;;;;;6.95;3.55;;;;;;;;;;4869364;29;20049;-72
2024/03/13 08:13:08;;;;;;;4.75;2.95;;;;;;;;;;4869523;29;20053;-72
2024/03/13 08:15:55;;;;;;;4.72;2.88;;;;;;;;;;4868946;29;20044;-72
2024/03/13 08:18:42;;;;;;;6.65;3.50;;;;;;;;;;4869051;29;20459;-72
2024/03/13 08:21:29;;;;;;;8.90;3.17;;;;;;;;;;4869404;29;20052;-71
2024/03/13 08:24:18;;;;;;;6.38;3.15;;;;;;;;;;4869385;29;20052;-72
2024/03/13 08:27:05;;;;;;;10.15;3.40;;;;;;;;;;4869218;29;20056;-72
2024/03/13 08:29:53;;;;;;;4.82;2.97;;;;;;;;;;4869412;29;20049;-72
2024/03/13 08:32:39;;;;;;;9.95;4.07;;;;;;;;;;4869201;29;20045;-72
2024/03/13 08:35:29;;;;;;;10.60;3.53;;;;;;;;;;4868534;29;20052;-72
2024/03/13 08:38:15;;;;;;;4.85;2.70;;;;;;;;;;4868785;29;20543;-72
2024/03/13 08:41:01;;;;;;;5.18;2.47;;;;;;;;;;4867923;29;20417;-72
2024/03/13 08:43:49;;;;;;;8.95;3.22;;;;;;;;;;4868774;29;20581;-73
2024/03/13 08:46:35;;;;;;;5.75;3.03;;;;;;;;;;4869044;29;20504;-72
2024/03/13 08:49:22;;;;;;;7.22;3.53;;;;;;;;;;4868834;29;20053;-72
2024/03/13 08:52:09;;;;;;;6.95;3.00;;;;;;;;;;4868983;29;20056;-71
2024/03/13 08:54:56;;;;;;;7.85;3.33;;;;;;;;;;4867164;29;20053;-72
2024/03/13 08:57:45;;;;;;;12.88;3.42;;;;;;;;;;4868643;29;20056;-72
2024/03/13 09:00:31;;;;;;;6.90;3.65;;;;;;;;;;4869100;29;20045;-73
2024/03/13 09:03:18;;;;;;;7.47;2.95;;;;;;;;;;4868832;29;20060;-79
2024/03/13 09:06:15;;;;;;;12.50;3.70;;;;;;;;;;4869487;29;20052;-72
2024/03/13 09:08:46;;;;;;;8.27;3.55;;;;;;;;;;4868868;29;20752;-73
2024/03/13 09:11:17;;;;;;;8.15;3.80;;;;;;;;;;4871551;29;20060;-72
2024/03/13 09:13:47;;;;;;;8.55;3.90;;;;;;;;;;4871785;29;20048;-74
2024/03/13 09:16:18;;;;;;;8.02;3.53;;;;;;;;;;4872005;29;20046;-72
2024/03/13 09:18:49;;;;;;;5.78;3.28;;;;;;;;;;4886972;29;20432;-73
2024/03/13 09:21:20;;;;;;;12.02;3.33;;;;;;;;;;4871884;29;20052;-72
2024/03/13 09:23:53;;;;;;;9.70;4.03;;;;;;;;;;4872370;29;20425;-72
2024/03/13 09:26:24;;;;;;;15.52;3.83;;;;;;;;;;4872072;29;20061;-72
2024/03/13 09:28:55;;;;;;;26.23;4.75;;;;;;;;;;4871840;29;20045;-72
2024/03/13 09:31:25;;;;;;;16.20;4.50;;;;;;;;;;4872386;29;20045;-74
2024/03/13 09:33:55;;;;;;;12.98;4.22;;;;;;;;;;4871702;29;20055;-72
2024/03/13 09:36:27;;;;;;;12.25;4.75;;;;;;;;;;4870085;29;20432;-72
2024/03/13 09:38:59;;;;;;;12.38;4.60;;;;;;;;;;4871979;29;20420;-72
2024/03/13 09:41:29;;;;;;;18.45;5.25;;;;;;;;;;4869975;29;20045;-75
2024/03/13 09:44:01;;;;;;;21.65;4.70;;;;;;;;;;4885618;29;20444;-73
2024/03/13 09:46:35;;;;;;;12.18;4.40;;;;;;;;;;4872214;29;20049;-73
2024/03/13 09:49:07;;;;;;;13.63;3.88;;;;;;;;;;4871602;29;20059;-71
2024/03/13 09:51:38;;;;;;;12.65;4.43;;;;;;;;;;4871773;29;20053;-72
2024/03/13 09:54:11;;;;;;;15.00;4.15;;;;;;;;;;4870410;29;20527;-72
2024/03/13 09:56:43;;;;;;;8.25;4.65;;;;;;;;;;4871838;29;20067;-73
2024/03/13 09:59:15;;;;;;;12.95;4.47;;;;;;;;;;4871656;29;20052;-75
2024/03/13 10:01:49;;;;;;;9.70;4.30;;;;;;;;;;4870878;29;20049;-72
2024/03/13 10:04:24;;;;;;;12.52;4.25;;;;;;;;;;4869858;29;20061;-79
2024/03/13 10:07:01;;;;;;;10.88;3.90;;;;;;;;;;4872081;29;20370;-73
2024/03/13 10:09:35;;;;;;;22.60;4.43;;;;;;;;;;4871162;29;20389;-72
2024/03/13 10:12:10;;;;;;;11.93;4.05;;;;;;;;;;4871437;29;20060;-73
2024/03/13 10:14:43;;;;;;;13.90;4.50;;;;;;;;;;4885074;29;20045;-72
2024/03/13 10:17:19;;;;;;;11.50;4.45;;;;;;;;;;4870663;29;20064;-73
2024/03/13 10:19:53;;;;;;;11.52;4.45;;;;;;;;;;4870648;29;20060;-75
2024/03/13 10:22:25;;;;;;;13.63;4.88;;;;;;;;;;4870108;29;20056;-73
2024/03/13 10:24:59;;;;;;;12.23;4.57;;;;;;;;;;4871492;29;20064;-73
2024/03/13 10:27:31;;;;;;;7.50;4.15;;;;;;;;;;4871306;29;20053;-83
2024/03/13 10:30:04;;;;;;;12.85;5.43;;;;;;;;;;4871116;29;20056;-72
2024/03/13 10:32:36;;;;;;;9.20;4.97;;;;;;;;;;4870072;29;20056;-72
2024/03/13 10:35:15;;;;;;;18.30;8.65;;;;;;;;;;4870930;29;20045;-73
2024/03/13 10:37:47;;;;;;;14.25;5.72;;;;;;;;;;4871008;29;20045;-73
2024/03/13 10:40:18;;;;;;;19.38;5.93;;;;;;;;;;4870449;29;20465;-73
2024/03/13 10:42:50;;;;;;;12.85;5.55;;;;;;;;;;4870292;29;20048;-73
2024/03/13 10:45:20;;;;;;;20.02;5.15;;;;;;;;;;4870528;29;20052;-73
2024/03/13 10:47:52;;;;;;;20.70;5.68;;;;;;;;;;4871332;29;20059;-73
2024/03/13 10:50:23;;;;;;;15.50;4.88;;;;;;;;;;4870468;29;20049;-73
2024/03/13 10:52:53;;;;;;;22.75;4.95;;;;;;;;;;4870284;29;20064;-73
2024/03/13 10:55:27;;;;;;;10.50;4.85;;;;;;;;;;4869851;29;20048;-72
2024/03/13 10:57:59;;;;;;;10.23;4.65;;;;;;;;;;4870632;29;20060;-71
2024/03/13 11:00:31;;;;;;;10.70;4.50;;;;;;;;;;4870347;29;20060;-75
2024/03/13 11:03:01;;;;;;;7.53;3.85;;;;;;;;;;4870857;29;20398;-75
2024/03/13 11:05:32;;;;;;;8.93;4.38;;;;;;;;;;4870718;29;20060;-72
2024/03/13 11:08:07;;;;;;;13.07;3.88;;;;;;;;;;4870494;29;20743;-76
2024/03/13 11:10:37;;;;;;;15.52;4.57;;;;;;;;;;4871514;29;20057;-72
2024/03/13 11:13:11;;;;;;;32.05;5.43;;;;;;;;;;4869035;29;20041;-75
2024/03/13 11:15:45;;;;;;;13.43;3.83;;;;;;;;;;4869760;29;20424;-72
2024/03/13 11:18:16;;;;;;;19.98;5.13;;;;;;;;;;4870711;29;20056;-73
2024/03/13 11:21:00;;;;;;;15.18;3.53;;;;;;;;;;4870433;29;20417;-73
2024/03/13 11:23:41;;;;;;;12.60;4.47;;;;;;;;;;4869770;29;20045;-72
2024/03/13 11:26:12;;;;;;;11.90;3.90;;;;;;;;;;4869257;29;20493;-72
2024/03/13 11:28:45;;;;;;;8.48;3.90;;;;;;;;;;4869410;29;20049;-73
2024/03/13 11:31:17;;;;;;;7.38;3.15;;;;;;;;;;4869786;29;20056;-72
2024/03/13 11:33:48;;;;;;;9.25;3.72;;;;;;;;;;4869142;29;20394;-72
2024/03/13 11:36:19;;;;;;;8.57;3.33;;;;;;;;;;4869606;29;20045;-81
2024/03/13 11:38:50;;;;;;;8.40;3.45;;;;;;;;;;4869636;29;20501;-74
2024/03/13 11:41:22;;;;;;;7.65;3.75;;;;;;;;;;4870074;29;20057;-72
2024/03/13 11:43:53;;;;;;;9.13;3.80;;;;;;;;;;4869152;29;20425;-75
2024/03/13 11:46:33;;;;;;;13.95;3.92;;;;;;;;;;4871028;29;20056;-73
2024/03/13 11:49:05;;;;;;;;;;;;;;;;;;4870514;29;20064;-73
2024/03/13 11:51:59;;;;;;;9.00;3.38;;;;;;;;;;4869725;29;19932;-73
2024/03/13 11:54:32;;;;;;;6.00;3.28;;;;;;;;;;4867708;29;20061;-74
2024/03/13 11:57:13;;;;;;;11.27;3.42;;;;;;;;;;4869824;29;20064;-74
2024/03/13 11:59:53;;;;;;;12.82;8.60;;;;;;;;;;4871277;29;20084;-73
2024/03/13 12:02:32;;;;;;;9.07;3.35;;;;;;;;;;4870953;29;20464;-74
2024/03/13 12:05:06;;;;;;;10.63;3.58;;;;;;;;;;4869208;29;20528;-73
2024/03/13 12:07:40;;;;;;;5.28;3.28;;;;;;;;;;4871127;29;20053;-74
2024/03/13 12:10:16;;;;;;;8.63;3.25;;;;;;;;;;4871322;29;20045;-72
2024/03/13 12:12:48;;;;;;;6.72;2.97;;;;;;;;;;4870683;29;20520;-79
2024/03/13 12:15:18;;;;;;;10.52;3.58;;;;;;;;;;4870778;29;20764;-72
2024/03/13 12:17:55;;;;;;;5.90;3.03;;;;;;;;;;4870023;29;20060;-74
2024/03/13 12:20:34;;;;;;;11.52;3.20;;;;;;;;;;4867698;29;20060;-74
2024/03/13 12:23:09;;;;;;;5.22;3.03;;;;;;;;;;4869796;29;20068;-73
2024/03/13 12:25:41;;;;;;;6.10;2.85;;;;;;;;;;4870123;29;20384;-74
2024/03/13 12:28:16;;;;;;;4.45;2.50;;;;;;;;;;4869508;29;20053;-77
2024/03/13 12:30:50;;;;;;;8.95;5.05;;;;;;;;;;4869420;29;20138;-74
2024/03/13 12:33:24;;;;;;;4.68;2.67;;;;;;;;;;4869404;29;20060;-73
2024/03/13 12:35:59;;;;;;;12.40;3.08;;;;;;;;;;4869464;29;20539;-74
2024/03/13 12:38:37;;;;;;;;;;;;;;;;;;4870215;29;20621;-73
2024/03/13 12:41:10;;;;;;;5.47;2.75;;;;;;;;;;4872353;29;20412;-73
2024/03/13 12:43:44;;;;;;;5.75;2.75;;;;;;;;;;4870356;29;20064;-73
2024/03/13 12:46:15;;;;;;;11.10;3.42;;;;;;;;;;4868620;29;20056;-77
2024/03/13 12:48:46;;;;;;;5.07;2.58;;;;;;;;;;4869409;29;20057;-81
2024/03/13 12:51:17;;;;;;;7.20;2.95;;;;;;;;;;4869982;29;20123;-73
2024/03/13 12:53:48;;;;;;;6.53;2.65;;;;;;;;;;4869665;29;20428;-73
2024/03/13 12:56:18;;;;;;;6.40;2.90;;;;;;;;;;4868940;29;20053;-74
2024/03/13 12:58:51;;;;;;;4.90;2.95;;;;;;;;;;4869399;29;20536;-75
2024/03/13 13:01:23;;;;;;;7.38;3.47;;;;;;;;;;4868641;29;20052;-73
2024/03/13 13:03:55;;;;;;;6.65;2.55;;;;;;;;;;4868923;29;20071;-72
2024/03/13 13:06:26;;;;;;;8.27;3.92;;;;;;;;;;4869046;29;20064;-73
2024/03/13 13:08:57;;;;;;;7.95;3.53;;;;;;;;;;4869029;29;20060;-73
2024/03/13 13:11:27;;;;;;;7.40;3.20;;;;;;;;;;4868491;29;20049;-74
2024/03/13 13:13:58;;;;;;;3.60;2.95;;;;;;;;;;4868788;29;20060;-73
2024/03/13 13:16:28;;;;;;;6.85;3.25;;;;;;;;;;4868442;29;20076;-73
2024/03/13 13:19:00;;;;;;;5.47;3.28;;;;;;;;;;4868307;29;20057;-72
2024/03/13 13:21:32;;;;;;;6.40;3.30;;;;;;;;;;4868244;29;20052;-73
2024/03/13 13:24:03;;;;;;;8.85;3.25;;;;;;;;;;4866625;29;20053;-73
2024/03/13 13:26:33;;;;;;;6.82;3.40;;;;;;;;;;4868987;29;20045;-73
2024/03/13 13:29:04;;;;;;;9.18;3.85;;;;;;;;;;4868314;29;20049;-73
2024/03/13 13:31:38;;;;;;;11.52;4.47;;;;;;;;;;4868576;29;20056;-73
2024/03/13 13:34:08;;;;;;;7.45;3.58;;;;;;;;;;4868095;29;20055;-73
2024/03/13 13:36:39;;;;;;;7.13;3.70;;;;;;;;;;4866444;29;20079;-73
2024/03/13 13:39:13;;;;;;;23.92;6.25;;;;;;;;;;4867798;29;20056;-73
2024/03/13 13:41:44;;;;;;;6.05;3.50;;;;;;;;;;4868024;29;20060;-74
2024/03/13 13:44:15;;;;;;;13.20;4.22;;;;;;;;;;4868533;29;20053;-77
2024/03/13 13:46:46;;;;;;;9.43;4.13;;;;;;;;;;4867120;29;20537;-73
2024/03/13 13:49:16;;;;;;;9.02;3.95;;;;;;;;;;4867808;29;20680;-73
2024/03/13 13:51:46;;;;;;;13.57;4.63;;;;;;;;;;4868300;29;20076;-75
2024/03/13 13:54:16;;;;;;;15.07;5.97;;;;;;;;;;4868754;29;20053;-73
2024/03/13 13:56:47;;;;;;;5.78;4.13;;;;;;;;;;4869628;29;20088;-77
2024/03/13 13:59:17;;;;;;;12.88;6.03;;;;;;;;;;4871939;29;20049;-74
2024/03/13 14:01:52;;;;;;;10.05;3.88;;;;;;;;;;4871790;29;20057;-74
2024/03/13 14:04:24;;;;;;;8.80;4.55;;;;;;;;;;4871781;29;20049;-76
2024/03/13 14:06:57;;;;;;;8.50;4.25;;;;;;;;;;4871495;29;20048;-73
2024/03/13 14:09:29;;;;;;;11.82;4.03;;;;;;;;;;4871424;29;20063;-73
2024/03/13 14:11:59;;;;;;;9.90;4.20;;;;;;;;;;4870951;29;20071;-74
2024/03/13 14:14:32;;;;;;;9.55;4.30;;;;;;;;;;4871417;29;20055;-72
2024/03/13 14:17:13;;;;;;;6.90;4.20;;;;;;;;;;4870976;29;20061;-73
2024/03/13 14:19:43;;;;;;;16.25;4.93;;;;;;;;;;4871182;29;20064;-74
2024/03/13 14:22:14;;;;;;;9.45;4.10;;;;;;;;;;4871187;29;20049;-73
2024/03/13 14:24:44;;;;;;;8.50;4.45;;;;;;;;;;4870860;29;20045;-73
2024/03/13 14:27:16;;;;;;;9.00;4.10;;;;;;;;;;4870782;29;20049;-73
2024/03/13 14:29:47;;;;;;;5.80;3.60;;;;;;;;;;4870877;29;20063;-74
2024/03/13 14:32:18;;;;;;;15.15;4.57;;;;;;;;;;4870495;29;20045;-77
2024/03/13 14:34:48;;;;;;;11.30;4.68;;;;;;;;;;4870858;29;20057;-74
2024/03/13 14:37:31;;;;;;;6.97;4.32;;;;;;;;;;4871234;29;20143;-73
2024/03/13 14:40:04;;;;;;;16.33;4.15;;;;;;;;;;4870446;29;20053;-74
2024/03/13 14:42:38;;;;;;;8.63;4.10;;;;;;;;;;4869448;29;20053;-74
2024/03/13 14:45:09;;;;;;;8.43;4.85;;;;;;;;;;4869769;29;20073;-73
2024/03/13 14:47:41;;;;;;;10.98;4.70;;;;;;;;;;4871091;29;20048;-73
2024/03/13 14:50:17;;;;;;;6.95;3.33;;;;;;;;;;4871372;29;20045;-75
2024/03/13 14:52:50;;;;;;;9.77;3.50;;;;;;;;;;4871529;29;20064;-74
2024/03/13 14:55:34;;;;;;;7.47;3.55;;;;;;;;;;4870815;29;20053;-74
2024/03/13 14:58:05;;;;;;;5.93;3.65;;;;;;;;;;4868611;29;20056;-74
2024/03/13 15:00:36;;;;;;;8.55;4.47;;;;;;;;;;4870306;29;20053;-75
2024/03/13 15:03:06;;;;;;;4.47;2.80;;;;;;;;;;4870409;29;20081;-80
2024/03/13 15:05:41;;;;;;;6.90;3.22;;;;;;;;;;4871011;29;20060;-75
2024/03/13 15:08:11;;;;;;;6.53;3.22;;;;;;;;;;4869011;29;20075;-74
2024/03/13 15:10:42;;;;;;;5.90;3.13;;;;;;;;;;4869923;29;20053;-73
2024/03/13 15:13:13;;;;;;;6.43;2.95;;;;;;;;;;4870991;29;20053;-76
2024/03/13 15:15:44;;;;;;;5.00;3.30;;;;;;;;;;4874484;29;20060;-74
2024/03/13 15:18:15;;;;;;;6.20;3.28;;;;;;;;;;4869742;29;20053;-73
2024/03/13 15:20:46;;;;;;;6.38;3.35;;;;;;;;;;4870721;29;20080;-73
2024/03/13 15:23:16;;;;;;;6.55;3.60;;;;;;;;;;4870724;29;20045;-79
2024/03/13 15:25:46;;;;;;;7.78;3.20;;;;;;;;;;4868715;29;20048;-73
2024/03/13 15:28:16;;;;;;;12.40;3.22;;;;;;;;;;4870192;29;20049;-75
2024/03/13 15:30:49;;;;;;;6.65;3.28;;;;;;;;;;4870149;29;20045;-73
2024/03/13 15:33:21;;;;;;;5.05;3.45;;;;;;;;;;4870638;29;20052;-73
2024/03/13 15:35:52;;;;;;;8.50;3.20;;;;;;;;;;4870536;29;20056;-72